sensor_id;sensor_type;location;lat;lon;timestamp;P1;durP1;ratioP1;P2;durP2;ratioP2
20476;SDS011;10397;50.948;11.092;2023-05-16T00:02:22;4.93;;;4.53;;
20476;SDS011;10397;50.948;11.092;2023-05-16T00:04:53;5.77;;;4.60;;
20476;SDS011;10397;50.948;11.092;2023-05-16T00:07:24;4.97;;;4.55;;
20476;SDS011;10397;50.948;11.092;2023-05-16T00:09:55;6.10;;;4.83;;
20476;SDS011;10397;50.948;11.092;2023-05-16T00:12:26;9.03;;;5.00;;
20476;SDS011;10397;50.948;11.092;2023-05-16T00:14:56;6.10;;;5.50;;
20476;SDS011;10397;50.948;11.092;2023-05-16T00:17:28;5.28;;;4.80;;
20476;SDS011;10397;50.948;11.092;2023-05-16T00:19:59;6.93;;;5.27;;
20476;SDS011;10397;50.948;11.092;2023-05-16T00:22:30;6.10;;;5.12;;
20476;SDS011;10397;50.948;11.092;2023-05-16T00:25:01;5.50;;;5.00;;
20476;SDS011;10397;50.948;11.092;2023-05-16T00:27:32;6.17;;;5.67;;
20476;SDS011;10397;50.948;11.092;2023-05-16T00:30:05;6.47;;;5.87;;
20476;SDS011;10397;50.948;11.092;2023-05-16T00:32:37;6.03;;;5.27;;
20476;SDS011;10397;50.948;11.092;2023-05-16T00:35:08;6.60;;;6.00;;
20476;SDS011;10397;50.948;11.092;2023-05-16T00:37:39;5.92;;;5.42;;
20476;SDS011;10397;50.948;11.092;2023-05-16T00:40:10;8.40;;;6.03;;
20476;SDS011;10397;50.948;11.092;2023-05-16T00:42:41;6.40;;;5.80;;
20476;SDS011;10397;50.948;11.092;2023-05-16T00:45:11;7.00;;;6.40;;
20476;SDS011;10397;50.948;11.092;2023-05-16T00:47:42;5.90;;;5.40;;
20476;SDS011;10397;50.948;11.092;2023-05-16T00:50:13;7.87;;;7.12;;
20476;SDS011;10397;50.948;11.092;2023-05-16T00:52:44;7.33;;;6.70;;
20476;SDS011;10397;50.948;11.092;2023-05-16T00:55:15;7.87;;;7.28;;
20476;SDS011;10397;50.948;11.092;2023-05-16T00:57:46;7.47;;;6.85;;
20476;SDS011;10397;50.948;11.092;2023-05-16T01:00:17;7.40;;;6.75;;
20476;SDS011;10397;50.948;11.092;2023-05-16T01:02:49;8.15;;;7.35;;
20476;SDS011;10397;50.948;11.092;2023-05-16T01:05:19;7.73;;;7.07;;
20476;SDS011;10397;50.948;11.092;2023-05-16T01:07:51;7.03;;;6.37;;
20476;SDS011;10397;50.948;11.092;2023-05-16T01:10:22;7.85;;;6.37;;
20476;SDS011;10397;50.948;11.092;2023-05-16T01:12:56;6.75;;;6.17;;
20476;SDS011;10397;50.948;11.092;2023-05-16T01:15:31;7.33;;;6.73;;
20476;SDS011;10397;50.948;11.092;2023-05-16T01:20:45;7.07;;;6.57;;
20476;SDS011;10397;50.948;11.092;2023-05-16T01:26:21;7.13;;;6.57;;
20476;SDS011;10397;50.948;11.092;2023-05-16T01:28:52;6.53;;;5.92;;
20476;SDS011;10397;50.948;11.092;2023-05-16T01:31:22;6.95;;;6.35;;
20476;SDS011;10397;50.948;11.092;2023-05-16T01:33:53;6.83;;;6.33;;
20476;SDS011;10397;50.948;11.092;2023-05-16T01:36:25;8.23;;;6.60;;
20476;SDS011;10397;50.948;11.092;2023-05-16T01:39:01;8.10;;;7.40;;
20476;SDS011;10397;50.948;11.092;2023-05-16T01:44:34;9.07;;;8.37;;
20476;SDS011;10397;50.948;11.092;2023-05-16T01:47:15;9.80;;;8.90;;
20476;SDS011;10397;50.948;11.092;2023-05-16T01:49:50;10.40;;;9.40;;
20476;SDS011;10397;50.948;11.092;2023-05-16T01:52:20;11.00;;;10.17;;
20476;SDS011;10397;50.948;11.092;2023-05-16T01:54:50;14.38;;;10.25;;
20476;SDS011;10397;50.948;11.092;2023-05-16T01:57:20;12.80;;;11.65;;
20476;SDS011;10397;50.948;11.092;2023-05-16T01:59:51;12.10;;;11.22;;
20476;SDS011;10397;50.948;11.092;2023-05-16T02:02:22;13.65;;;12.33;;
20476;SDS011;10397;50.948;11.092;2023-05-16T02:04:54;14.13;;;12.93;;
20476;SDS011;10397;50.948;11.092;2023-05-16T02:07:25;14.87;;;13.68;;
20476;SDS011;10397;50.948;11.092;2023-05-16T02:09:56;15.55;;;14.20;;
20476;SDS011;10397;50.948;11.092;2023-05-16T02:12:28;14.68;;;13.45;;
20476;SDS011;10397;50.948;11.092;2023-05-16T02:15:00;19.60;;;14.30;;
20476;SDS011;10397;50.948;11.092;2023-05-16T02:17:32;14.53;;;13.00;;
20476;SDS011;10397;50.948;11.092;2023-05-16T02:20:03;15.58;;;13.88;;
20476;SDS011;10397;50.948;11.092;2023-05-16T02:22:35;15.75;;;14.38;;
20476;SDS011;10397;50.948;11.092;2023-05-16T02:25:05;16.03;;;14.00;;
20476;SDS011;10397;50.948;11.092;2023-05-16T02:27:36;15.40;;;14.20;;
20476;SDS011;10397;50.948;11.092;2023-05-16T02:30:11;17.30;;;15.70;;
20476;SDS011;10397;50.948;11.092;2023-05-16T02:32:42;17.82;;;16.05;;
20476;SDS011;10397;50.948;11.092;2023-05-16T02:35:13;16.17;;;14.93;;
20476;SDS011;10397;50.948;11.092;2023-05-16T02:37:45;17.35;;;15.93;;
20476;SDS011;10397;50.948;11.092;2023-05-16T02:40:16;18.27;;;16.45;;
20476;SDS011;10397;50.948;11.092;2023-05-16T02:42:47;17.60;;;16.25;;
20476;SDS011;10397;50.948;11.092;2023-05-16T02:45:19;16.95;;;15.28;;
20476;SDS011;10397;50.948;11.092;2023-05-16T02:47:51;15.90;;;14.60;;
20476;SDS011;10397;50.948;11.092;2023-05-16T02:50:22;16.00;;;14.60;;
20476;SDS011;10397;50.948;11.092;2023-05-16T02:52:53;15.30;;;13.97;;
20476;SDS011;10397;50.948;11.092;2023-05-16T02:55:25;15.57;;;14.17;;
20476;SDS011;10397;50.948;11.092;2023-05-16T02:57:56;16.73;;;14.93;;
20476;SDS011;10397;50.948;11.092;2023-05-16T03:00:27;15.23;;;13.63;;
20476;SDS011;10397;50.948;11.092;2023-05-16T03:02:58;16.17;;;14.78;;
20476;SDS011;10397;50.948;11.092;2023-05-16T03:05:30;14.70;;;13.40;;
20476;SDS011;10397;50.948;11.092;2023-05-16T03:08:01;14.58;;;13.15;;
20476;SDS011;10397;50.948;11.092;2023-05-16T03:10:32;14.15;;;12.95;;
20476;SDS011;10397;50.948;11.092;2023-05-16T03:13:03;15.03;;;13.17;;
20476;SDS011;10397;50.948;11.092;2023-05-16T03:15:35;13.72;;;12.28;;
20476;SDS011;10397;50.948;11.092;2023-05-16T03:18:06;12.73;;;11.57;;
20476;SDS011;10397;50.948;11.092;2023-05-16T03:20:37;12.13;;;11.10;;
20476;SDS011;10397;50.948;11.092;2023-05-16T03:23:09;12.53;;;11.53;;
20476;SDS011;10397;50.948;11.092;2023-05-16T03:25:40;11.88;;;10.88;;
20476;SDS011;10397;50.948;11.092;2023-05-16T03:28:12;12.25;;;11.15;;
20476;SDS011;10397;50.948;11.092;2023-05-16T03:30:43;11.85;;;10.90;;
20476;SDS011;10397;50.948;11.092;2023-05-16T03:33:14;12.33;;;11.33;;
20476;SDS011;10397;50.948;11.092;2023-05-16T03:35:46;11.75;;;10.85;;
20476;SDS011;10397;50.948;11.092;2023-05-16T03:38:17;12.40;;;11.18;;
20476;SDS011;10397;50.948;11.092;2023-05-16T03:40:48;11.50;;;10.45;;
20476;SDS011;10397;50.948;11.092;2023-05-16T03:43:20;11.50;;;10.50;;
20476;SDS011;10397;50.948;11.092;2023-05-16T03:45:52;11.90;;;10.75;;
20476;SDS011;10397;50.948;11.092;2023-05-16T03:48:23;13.30;;;11.78;;
20476;SDS011;10397;50.948;11.092;2023-05-16T03:50:55;10.88;;;9.98;;
20476;SDS011;10397;50.948;11.092;2023-05-16T03:53:26;11.77;;;10.77;;
20476;SDS011;10397;50.948;11.092;2023-05-16T03:55:58;12.47;;;11.38;;
20476;SDS011;10397;50.948;11.092;2023-05-16T03:58:29;12.45;;;11.25;;
20476;SDS011;10397;50.948;11.092;2023-05-16T04:01:01;15.48;;;11.00;;
20476;SDS011;10397;50.948;11.092;2023-05-16T04:03:32;12.70;;;11.63;;
20476;SDS011;10397;50.948;11.092;2023-05-16T04:06:06;12.58;;;11.48;;
20476;SDS011;10397;50.948;11.092;2023-05-16T04:08:35;12.17;;;10.97;;
20476;SDS011;10397;50.948;11.092;2023-05-16T04:11:06;11.03;;;10.00;;
20476;SDS011;10397;50.948;11.092;2023-05-16T04:13:37;11.50;;;10.50;;
20476;SDS011;10397;50.948;11.092;2023-05-16T04:16:09;11.25;;;10.20;;
20476;SDS011;10397;50.948;11.092;2023-05-16T04:18:41;11.60;;;10.60;;
20476;SDS011;10397;50.948;11.092;2023-05-16T04:21:12;11.33;;;10.43;;
20476;SDS011;10397;50.948;11.092;2023-05-16T04:23:44;11.53;;;10.32;;
20476;SDS011;10397;50.948;11.092;2023-05-16T04:26:16;11.03;;;10.13;;
20476;SDS011;10397;50.948;11.092;2023-05-16T04:28:47;11.48;;;10.50;;
20476;SDS011;10397;50.948;11.092;2023-05-16T04:31:18;10.93;;;10.03;;
20476;SDS011;10397;50.948;11.092;2023-05-16T04:33:49;10.60;;;9.70;;
20476;SDS011;10397;50.948;11.092;2023-05-16T04:36:21;10.68;;;9.88;;
20476;SDS011;10397;50.948;11.092;2023-05-16T04:38:52;10.80;;;9.88;;
20476;SDS011;10397;50.948;11.092;2023-05-16T04:41:23;10.20;;;9.30;;
20476;SDS011;10397;50.948;11.092;2023-05-16T04:43:54;11.20;;;10.13;;
20476;SDS011;10397;50.948;11.092;2023-05-16T04:46:25;10.38;;;9.48;;
20476;SDS011;10397;50.948;11.092;2023-05-16T04:48:57;11.97;;;9.18;;
20476;SDS011;10397;50.948;11.092;2023-05-16T04:51:29;12.37;;;9.15;;
20476;SDS011;10397;50.948;11.092;2023-05-16T04:54:00;10.80;;;9.85;;
20476;SDS011;10397;50.948;11.092;2023-05-16T04:56:32;10.55;;;9.65;;
20476;SDS011;10397;50.948;11.092;2023-05-16T04:59:04;10.75;;;9.08;;
20476;SDS011;10397;50.948;11.092;2023-05-16T05:01:35;9.73;;;8.90;;
20476;SDS011;10397;50.948;11.092;2023-05-16T05:04:06;9.68;;;8.88;;
20476;SDS011;10397;50.948;11.092;2023-05-16T05:06:37;10.15;;;9.13;;
20476;SDS011;10397;50.948;11.092;2023-05-16T05:09:09;9.13;;;8.35;;
20476;SDS011;10397;50.948;11.092;2023-05-16T05:11:40;9.38;;;8.58;;
20476;SDS011;10397;50.948;11.092;2023-05-16T05:14:11;9.50;;;8.73;;
20476;SDS011;10397;50.948;11.092;2023-05-16T05:16:43;9.80;;;8.90;;
20476;SDS011;10397;50.948;11.092;2023-05-16T05:19:14;8.90;;;8.05;;
20476;SDS011;10397;50.948;11.092;2023-05-16T05:21:45;9.90;;;8.28;;
20476;SDS011;10397;50.948;11.092;2023-05-16T05:24:17;9.65;;;8.63;;
20476;SDS011;10397;50.948;11.092;2023-05-16T05:26:48;8.53;;;7.67;;
20476;SDS011;10397;50.948;11.092;2023-05-16T05:29:20;9.15;;;8.35;;
20476;SDS011;10397;50.948;11.092;2023-05-16T05:31:51;8.88;;;8.18;;
20476;SDS011;10397;50.948;11.092;2023-05-16T05:34:23;9.55;;;8.68;;
20476;SDS011;10397;50.948;11.092;2023-05-16T05:36:54;12.10;;;8.83;;
20476;SDS011;10397;50.948;11.092;2023-05-16T05:39:25;8.97;;;8.17;;
20476;SDS011;10397;50.948;11.092;2023-05-16T05:41:56;9.20;;;8.33;;
20476;SDS011;10397;50.948;11.092;2023-05-16T05:44:27;9.50;;;8.57;;
20476;SDS011;10397;50.948;11.092;2023-05-16T05:46:58;9.83;;;8.88;;
20476;SDS011;10397;50.948;11.092;2023-05-16T05:49:30;9.13;;;8.28;;
20476;SDS011;10397;50.948;11.092;2023-05-16T05:52:01;9.58;;;8.65;;
20476;SDS011;10397;50.948;11.092;2023-05-16T05:54:32;11.55;;;9.30;;
20476;SDS011;10397;50.948;11.092;2023-05-16T05:57:04;9.73;;;8.75;;
20476;SDS011;10397;50.948;11.092;2023-05-16T05:59:35;10.63;;;8.65;;
20476;SDS011;10397;50.948;11.092;2023-05-16T06:02:06;9.33;;;8.53;;
20476;SDS011;10397;50.948;11.092;2023-05-16T06:04:37;11.03;;;9.23;;
20476;SDS011;10397;50.948;11.092;2023-05-16T06:07:08;9.50;;;8.63;;
20476;SDS011;10397;50.948;11.092;2023-05-16T06:09:40;9.28;;;7.72;;
20476;SDS011;10397;50.948;11.092;2023-05-16T06:12:10;9.57;;;8.63;;
20476;SDS011;10397;50.948;11.092;2023-05-16T06:14:41;9.53;;;8.63;;
20476;SDS011;10397;50.948;11.092;2023-05-16T06:17:12;8.25;;;7.45;;
20476;SDS011;10397;50.948;11.092;2023-05-16T06:19:43;7.90;;;7.10;;
20476;SDS011;10397;50.948;11.092;2023-05-16T06:22:15;7.20;;;6.47;;
20476;SDS011;10397;50.948;11.092;2023-05-16T06:24:46;6.80;;;6.12;;
20476;SDS011;10397;50.948;11.092;2023-05-16T06:27:17;7.80;;;5.50;;
20476;SDS011;10397;50.948;11.092;2023-05-16T06:29:48;6.80;;;5.80;;
20476;SDS011;10397;50.948;11.092;2023-05-16T06:32:20;5.70;;;5.20;;
20476;SDS011;10397;50.948;11.092;2023-05-16T06:34:51;5.80;;;5.08;;
20476;SDS011;10397;50.948;11.092;2023-05-16T06:37:22;6.25;;;5.42;;
20476;SDS011;10397;50.948;11.092;2023-05-16T06:39:54;7.87;;;5.07;;
20476;SDS011;10397;50.948;11.092;2023-05-16T06:42:25;4.92;;;4.45;;
20476;SDS011;10397;50.948;11.092;2023-05-16T06:44:56;6.03;;;4.97;;
20476;SDS011;10397;50.948;11.092;2023-05-16T06:47:27;5.03;;;4.53;;
20476;SDS011;10397;50.948;11.092;2023-05-16T06:49:58;6.83;;;4.80;;
20476;SDS011;10397;50.948;11.092;2023-05-16T06:52:29;5.23;;;4.73;;
20476;SDS011;10397;50.948;11.092;2023-05-16T06:55:01;5.83;;;4.80;;
20476;SDS011;10397;50.948;11.092;2023-05-16T06:57:32;8.80;;;4.80;;
20476;SDS011;10397;50.948;11.092;2023-05-16T07:00:04;4.47;;;3.75;;
20476;SDS011;10397;50.948;11.092;2023-05-16T07:02:35;5.92;;;4.28;;
20476;SDS011;10397;50.948;11.092;2023-05-16T07:05:06;7.83;;;3.87;;
20476;SDS011;10397;50.948;11.092;2023-05-16T07:07:37;4.15;;;3.22;;
20476;SDS011;10397;50.948;11.092;2023-05-16T07:10:09;3.98;;;3.58;;
20476;SDS011;10397;50.948;11.092;2023-05-16T07:12:41;4.25;;;3.75;;
20476;SDS011;10397;50.948;11.092;2023-05-16T07:15:11;3.67;;;3.37;;
20476;SDS011;10397;50.948;11.092;2023-05-16T07:17:42;5.57;;;2.97;;
20476;SDS011;10397;50.948;11.092;2023-05-16T07:20:13;4.83;;;3.30;;
20476;SDS011;10397;50.948;11.092;2023-05-16T07:22:45;4.97;;;2.92;;
20476;SDS011;10397;50.948;11.092;2023-05-16T07:25:17;3.85;;;3.10;;
20476;SDS011;10397;50.948;11.092;2023-05-16T07:27:48;4.80;;;3.33;;
20476;SDS011;10397;50.948;11.092;2023-05-16T07:30:19;3.70;;;3.35;;
20476;SDS011;10397;50.948;11.092;2023-05-16T07:32:50;6.80;;;3.30;;
20476;SDS011;10397;50.948;11.092;2023-05-16T07:35:21;8.75;;;3.22;;
20476;SDS011;10397;50.948;11.092;2023-05-16T07:37:52;4.55;;;3.70;;
20476;SDS011;10397;50.948;11.092;2023-05-16T07:40:23;4.20;;;2.70;;
20476;SDS011;10397;50.948;11.092;2023-05-16T07:42:55;2.45;;;2.00;;
20476;SDS011;10397;50.948;11.092;2023-05-16T07:45:25;3.93;;;2.90;;
20476;SDS011;10397;50.948;11.092;2023-05-16T07:47:57;5.83;;;2.55;;
20476;SDS011;10397;50.948;11.092;2023-05-16T07:50:28;2.95;;;2.65;;
20476;SDS011;10397;50.948;11.092;2023-05-16T07:52:59;5.45;;;3.35;;
20476;SDS011;10397;50.948;11.092;2023-05-16T07:55:31;5.45;;;2.55;;
20476;SDS011;10397;50.948;11.092;2023-05-16T07:58:02;5.28;;;2.70;;
20476;SDS011;10397;50.948;11.092;2023-05-16T08:00:32;3.27;;;2.97;;
20476;SDS011;10397;50.948;11.092;2023-05-16T08:03:03;4.97;;;2.60;;
20476;SDS011;10397;50.948;11.092;2023-05-16T08:05:35;4.43;;;2.53;;
20476;SDS011;10397;50.948;11.092;2023-05-16T08:08:06;2.73;;;2.33;;
20476;SDS011;10397;50.948;11.092;2023-05-16T08:10:36;2.90;;;2.53;;
20476;SDS011;10397;50.948;11.092;2023-05-16T08:13:08;3.37;;;2.40;;
20476;SDS011;10397;50.948;11.092;2023-05-16T08:15:39;2.93;;;2.10;;
20476;SDS011;10397;50.948;11.092;2023-05-16T08:18:13;2.63;;;1.63;;
20476;SDS011;10397;50.948;11.092;2023-05-16T08:20:43;2.70;;;1.60;;
20476;SDS011;10397;50.948;11.092;2023-05-16T08:23:14;2.47;;;1.67;;
20476;SDS011;10397;50.948;11.092;2023-05-16T08:25:46;2.40;;;1.20;;
20476;SDS011;10397;50.948;11.092;2023-05-16T08:28:17;2.35;;;1.55;;
20476;SDS011;10397;50.948;11.092;2023-05-16T08:30:48;1.50;;;1.13;;
20476;SDS011;10397;50.948;11.092;2023-05-16T08:33:19;3.92;;;1.02;;
20476;SDS011;10397;50.948;11.092;2023-05-16T08:35:50;0.93;;;0.75;;
20476;SDS011;10397;50.948;11.092;2023-05-16T08:38:21;2.67;;;0.70;;
20476;SDS011;10397;50.948;11.092;2023-05-16T08:40:53;2.40;;;0.70;;
20476;SDS011;10397;50.948;11.092;2023-05-16T08:43:24;1.35;;;0.60;;
20476;SDS011;10397;50.948;11.092;2023-05-16T08:45:55;0.70;;;0.50;;
20476;SDS011;10397;50.948;11.092;2023-05-16T08:48:26;3.77;;;0.40;;
20476;SDS011;10397;50.948;11.092;2023-05-16T08:50:59;1.02;;;0.50;;
20476;SDS011;10397;50.948;11.092;2023-05-16T08:53:30;2.40;;;0.60;;
20476;SDS011;10397;50.948;11.092;2023-05-16T08:56:02;1.30;;;0.40;;
20476;SDS011;10397;50.948;11.092;2023-05-16T08:58:33;2.60;;;0.70;;
20476;SDS011;10397;50.948;11.092;2023-05-16T09:01:04;2.95;;;0.65;;
20476;SDS011;10397;50.948;11.092;2023-05-16T09:03:36;0.68;;;0.45;;
20476;SDS011;10397;50.948;11.092;2023-05-16T09:06:07;7.03;;;0.72;;
20476;SDS011;10397;50.948;11.092;2023-05-16T09:08:38;1.00;;;0.40;;
20476;SDS011;10397;50.948;11.092;2023-05-16T09:11:09;0.62;;;0.50;;
20476;SDS011;10397;50.948;11.092;2023-05-16T09:13:40;1.15;;;0.50;;
20476;SDS011;10397;50.948;11.092;2023-05-16T09:16:11;1.20;;;0.70;;
20476;SDS011;10397;50.948;11.092;2023-05-16T09:18:42;1.27;;;0.50;;
20476;SDS011;10397;50.948;11.092;2023-05-16T09:21:12;2.37;;;0.80;;
20476;SDS011;10397;50.948;11.092;2023-05-16T09:23:43;1.77;;;0.80;;
20476;SDS011;10397;50.948;11.092;2023-05-16T09:26:15;1.27;;;0.40;;
20476;SDS011;10397;50.948;11.092;2023-05-16T09:28:46;1.95;;;0.72;;
20476;SDS011;10397;50.948;11.092;2023-05-16T09:31:20;1.27;;;0.60;;
20476;SDS011;10397;50.948;11.092;2023-05-16T09:33:55;1.37;;;0.50;;
20476;SDS011;10397;50.948;11.092;2023-05-16T09:36:26;1.10;;;0.50;;
20476;SDS011;10397;50.948;11.092;2023-05-16T09:38:57;1.12;;;0.47;;
20476;SDS011;10397;50.948;11.092;2023-05-16T09:41:28;1.85;;;0.60;;
20476;SDS011;10397;50.948;11.092;2023-05-16T09:43:59;1.12;;;0.50;;
20476;SDS011;10397;50.948;11.092;2023-05-16T09:46:30;3.58;;;0.50;;
20476;SDS011;10397;50.948;11.092;2023-05-16T09:49:01;3.57;;;0.77;;
20476;SDS011;10397;50.948;11.092;2023-05-16T09:51:32;1.83;;;0.67;;
20476;SDS011;10397;50.948;11.092;2023-05-16T09:54:06;1.57;;;0.70;;
20476;SDS011;10397;50.948;11.092;2023-05-16T09:56:47;1.25;;;0.70;;
20476;SDS011;10397;50.948;11.092;2023-05-16T09:59:08;2.27;;;0.70;;
20476;SDS011;10397;50.948;11.092;2023-05-16T10:01:36;2.72;;;0.72;;
20476;SDS011;10397;50.948;11.092;2023-05-16T10:04:08;4.20;;;1.30;;
20476;SDS011;10397;50.948;11.092;2023-05-16T10:06:40;3.75;;;0.70;;
20476;SDS011;10397;50.948;11.092;2023-05-16T10:09:11;4.03;;;0.70;;
20476;SDS011;10397;50.948;11.092;2023-05-16T10:11:42;1.55;;;0.72;;
20476;SDS011;10397;50.948;11.092;2023-05-16T10:14:16;7.55;;;1.35;;
20476;SDS011;10397;50.948;11.092;2023-05-16T10:16:45;3.43;;;1.00;;
20476;SDS011;10397;50.948;11.092;2023-05-16T10:19:15;2.22;;;0.90;;
20476;SDS011;10397;50.948;11.092;2023-05-16T10:21:47;3.35;;;0.80;;
20476;SDS011;10397;50.948;11.092;2023-05-16T10:24:17;2.50;;;0.90;;
20476;SDS011;10397;50.948;11.092;2023-05-16T10:26:48;2.08;;;0.85;;
20476;SDS011;10397;50.948;11.092;2023-05-16T10:29:18;5.90;;;1.03;;
20476;SDS011;10397;50.948;11.092;2023-05-16T10:31:49;1.27;;;0.93;;
20476;SDS011;10397;50.948;11.092;2023-05-16T10:34:20;6.83;;;1.13;;
20476;SDS011;10397;50.948;11.092;2023-05-16T10:36:51;6.60;;;1.80;;
20476;SDS011;10397;50.948;11.092;2023-05-16T10:39:21;2.97;;;0.90;;
20476;SDS011;10397;50.948;11.092;2023-05-16T10:41:53;2.42;;;1.10;;
20476;SDS011;10397;50.948;11.092;2023-05-16T10:44:24;3.85;;;1.22;;
20476;SDS011;10397;50.948;11.092;2023-05-16T10:46:57;6.62;;;1.35;;
20476;SDS011;10397;50.948;11.092;2023-05-16T10:49:26;4.00;;;1.30;;
20476;SDS011;10397;50.948;11.092;2023-05-16T10:52:01;4.53;;;1.07;;
20476;SDS011;10397;50.948;11.092;2023-05-16T10:54:34;5.77;;;1.63;;
20476;SDS011;10397;50.948;11.092;2023-05-16T10:57:10;3.13;;;1.27;;
20476;SDS011;10397;50.948;11.092;2023-05-16T10:59:40;5.17;;;1.20;;
20476;SDS011;10397;50.948;11.092;2023-05-16T11:05:00;3.40;;;1.20;;
20476;SDS011;10397;50.948;11.092;2023-05-16T11:07:33;4.37;;;1.00;;
20476;SDS011;10397;50.948;11.092;2023-05-16T11:10:10;3.87;;;0.80;;
20476;SDS011;10397;50.948;11.092;2023-05-16T11:12:43;3.40;;;1.03;;
20476;SDS011;10397;50.948;11.092;2023-05-16T11:15:23;5.23;;;1.23;;
20476;SDS011;10397;50.948;11.092;2023-05-16T11:18:30;10.60;;;1.30;;
20476;SDS011;10397;50.948;11.092;2023-05-16T11:20:36;5.90;;;1.00;;
20476;SDS011;10397;50.948;11.092;2023-05-16T11:25:45;7.40;;;1.40;;
20476;SDS011;10397;50.948;11.092;2023-05-16T11:28:16;2.92;;;1.02;;
20476;SDS011;10397;50.948;11.092;2023-05-16T11:30:47;2.90;;;1.13;;
20476;SDS011;10397;50.948;11.092;2023-05-16T11:33:17;4.67;;;0.90;;
20476;SDS011;10397;50.948;11.092;2023-05-16T11:36:04;5.12;;;0.95;;
20476;SDS011;10397;50.948;11.092;2023-05-16T11:38:34;5.37;;;0.80;;
20476;SDS011;10397;50.948;11.092;2023-05-16T11:41:05;6.58;;;1.05;;
20476;SDS011;10397;50.948;11.092;2023-05-16T11:43:39;3.43;;;1.33;;
20476;SDS011;10397;50.948;11.092;2023-05-16T11:46:15;5.80;;;1.40;;
20476;SDS011;10397;50.948;11.092;2023-05-16T11:48:46;5.60;;;1.30;;
20476;SDS011;10397;50.948;11.092;2023-05-16T11:51:17;4.17;;;0.95;;
20476;SDS011;10397;50.948;11.092;2023-05-16T11:53:48;10.17;;;0.87;;
20476;SDS011;10397;50.948;11.092;2023-05-16T11:56:19;5.42;;;1.42;;
20476;SDS011;10397;50.948;11.092;2023-05-16T11:58:50;9.03;;;1.20;;
20476;SDS011;10397;50.948;11.092;2023-05-16T12:01:21;8.90;;;1.27;;
20476;SDS011;10397;50.948;11.092;2023-05-16T12:03:53;7.35;;;1.00;;
20476;SDS011;10397;50.948;11.092;2023-05-16T12:06:23;3.87;;;1.10;;
20476;SDS011;10397;50.948;11.092;2023-05-16T12:08:54;3.47;;;0.90;;
20476;SDS011;10397;50.948;11.092;2023-05-16T12:11:26;5.92;;;0.93;;
20476;SDS011;10397;50.948;11.092;2023-05-16T12:13:56;6.80;;;1.20;;
20476;SDS011;10397;50.948;11.092;2023-05-16T12:16:27;6.60;;;1.07;;
20476;SDS011;10397;50.948;11.092;2023-05-16T12:18:58;6.72;;;1.30;;
20476;SDS011;10397;50.948;11.092;2023-05-16T12:21:31;5.60;;;1.03;;
20476;SDS011;10397;50.948;11.092;2023-05-16T12:24:03;6.60;;;1.35;;
20476;SDS011;10397;50.948;11.092;2023-05-16T12:26:33;7.20;;;1.13;;
20476;SDS011;10397;50.948;11.092;2023-05-16T12:29:04;5.83;;;0.90;;
20476;SDS011;10397;50.948;11.092;2023-05-16T12:31:36;8.30;;;1.70;;
20476;SDS011;10397;50.948;11.092;2023-05-16T12:34:15;4.30;;;0.60;;
20476;SDS011;10397;50.948;11.092;2023-05-16T12:36:45;6.43;;;1.00;;
20476;SDS011;10397;50.948;11.092;2023-05-16T12:39:16;8.10;;;1.10;;
20476;SDS011;10397;50.948;11.092;2023-05-16T12:41:47;8.23;;;0.90;;
20476;SDS011;10397;50.948;11.092;2023-05-16T12:44:18;4.13;;;0.70;;
20476;SDS011;10397;50.948;11.092;2023-05-16T12:46:49;4.58;;;0.90;;
20476;SDS011;10397;50.948;11.092;2023-05-16T12:49:20;4.20;;;0.85;;
20476;SDS011;10397;50.948;11.092;2023-05-16T12:51:51;7.00;;;1.10;;
20476;SDS011;10397;50.948;11.092;2023-05-16T12:54:21;7.85;;;1.20;;
20476;SDS011;10397;50.948;11.092;2023-05-16T12:56:53;4.95;;;1.30;;
20476;SDS011;10397;50.948;11.092;2023-05-16T12:59:25;7.03;;;1.25;;
20476;SDS011;10397;50.948;11.092;2023-05-16T13:01:57;9.20;;;0.80;;
20476;SDS011;10397;50.948;11.092;2023-05-16T13:04:28;3.20;;;0.80;;
20476;SDS011;10397;50.948;11.092;2023-05-16T13:06:59;3.55;;;0.57;;
20476;SDS011;10397;50.948;11.092;2023-05-16T13:09:30;2.65;;;0.70;;
20476;SDS011;10397;50.948;11.092;2023-05-16T13:12:02;8.68;;;1.27;;
20476;SDS011;10397;50.948;11.092;2023-05-16T13:14:33;6.30;;;1.43;;
20476;SDS011;10397;50.948;11.092;2023-05-16T13:17:04;5.67;;;0.80;;
20476;SDS011;10397;50.948;11.092;2023-05-16T13:19:35;5.28;;;0.65;;
20476;SDS011;10397;50.948;11.092;2023-05-16T13:22:06;4.53;;;1.00;;
20476;SDS011;10397;50.948;11.092;2023-05-16T13:24:37;3.52;;;0.60;;
20476;SDS011;10397;50.948;11.092;2023-05-16T13:27:09;3.52;;;0.65;;
20476;SDS011;10397;50.948;11.092;2023-05-16T13:29:41;2.80;;;0.62;;
20476;SDS011;10397;50.948;11.092;2023-05-16T13:32:12;3.37;;;0.90;;
20476;SDS011;10397;50.948;11.092;2023-05-16T13:34:43;5.60;;;0.90;;
20476;SDS011;10397;50.948;11.092;2023-05-16T13:37:14;4.17;;;0.77;;
20476;SDS011;10397;50.948;11.092;2023-05-16T13:39:45;5.45;;;0.68;;
20476;SDS011;10397;50.948;11.092;2023-05-16T13:42:17;5.40;;;0.50;;
20476;SDS011;10397;50.948;11.092;2023-05-16T13:44:48;4.20;;;0.68;;
20476;SDS011;10397;50.948;11.092;2023-05-16T13:47:20;4.53;;;0.88;;
20476;SDS011;10397;50.948;11.092;2023-05-16T13:49:51;5.05;;;0.65;;
20476;SDS011;10397;50.948;11.092;2023-05-16T13:52:23;6.33;;;0.78;;
20476;SDS011;10397;50.948;11.092;2023-05-16T13:54:54;4.30;;;0.72;;
20476;SDS011;10397;50.948;11.092;2023-05-16T13:57:26;1.32;;;0.50;;
20476;SDS011;10397;50.948;11.092;2023-05-16T13:59:58;4.58;;;1.10;;
20476;SDS011;10397;50.948;11.092;2023-05-16T14:02:28;9.77;;;1.20;;
20476;SDS011;10397;50.948;11.092;2023-05-16T14:04:59;3.97;;;0.73;;
20476;SDS011;10397;50.948;11.092;2023-05-16T14:07:30;2.90;;;0.70;;
20476;SDS011;10397;50.948;11.092;2023-05-16T14:10:02;6.75;;;1.40;;
20476;SDS011;10397;50.948;11.092;2023-05-16T14:12:32;3.33;;;0.80;;
20476;SDS011;10397;50.948;11.092;2023-05-16T14:15:03;7.77;;;0.67;;
20476;SDS011;10397;50.948;11.092;2023-05-16T14:17:34;3.00;;;0.73;;
20476;SDS011;10397;50.948;11.092;2023-05-16T14:20:05;5.90;;;0.83;;
20476;SDS011;10397;50.948;11.092;2023-05-16T14:22:39;6.10;;;0.80;;
20476;SDS011;10397;50.948;11.092;2023-05-16T14:25:10;4.22;;;0.60;;
20476;SDS011;10397;50.948;11.092;2023-05-16T14:27:42;6.55;;;0.78;;
20476;SDS011;10397;50.948;11.092;2023-05-16T14:30:13;3.02;;;0.90;;
20476;SDS011;10397;50.948;11.092;2023-05-16T14:32:45;1.82;;;0.60;;
20476;SDS011;10397;50.948;11.092;2023-05-16T14:35:17;7.58;;;0.70;;
20476;SDS011;10397;50.948;11.092;2023-05-16T14:37:48;4.22;;;0.85;;
20476;SDS011;10397;50.948;11.092;2023-05-16T14:40:18;4.57;;;0.93;;
20476;SDS011;10397;50.948;11.092;2023-05-16T14:42:49;3.55;;;0.70;;
20476;SDS011;10397;50.948;11.092;2023-05-16T14:45:21;4.22;;;0.90;;
20476;SDS011;10397;50.948;11.092;2023-05-16T14:47:53;3.90;;;0.70;;
20476;SDS011;10397;50.948;11.092;2023-05-16T14:50:24;3.08;;;0.55;;
20476;SDS011;10397;50.948;11.092;2023-05-16T14:52:55;5.67;;;0.73;;
20476;SDS011;10397;50.948;11.092;2023-05-16T14:55:26;3.03;;;0.50;;
20476;SDS011;10397;50.948;11.092;2023-05-16T14:57:57;4.22;;;0.68;;
20476;SDS011;10397;50.948;11.092;2023-05-16T15:00:29;5.62;;;0.50;;
20476;SDS011;10397;50.948;11.092;2023-05-16T15:03:00;3.95;;;0.70;;
20476;SDS011;10397;50.948;11.092;2023-05-16T15:05:32;3.30;;;0.40;;
20476;SDS011;10397;50.948;11.092;2023-05-16T15:08:03;3.35;;;0.40;;